• Join FlightAware (Why Join?)
  • Login
  • US Flag 
12:10AM EDT


 

Airport Tracker/Info


-or-


 

Live Flight TrackerFlight Track Log ✈ SKW5631 ✈ 26-Sep-2013 ✈ KSFO - KBUR

Flight Track Log - Related Links

Times and Time Zones

All times are in EDT time to prevent confusion due to time zone crossing. See the SKW5631 flight status page for this flight to view local times or setup timezone preferences in your user account.

Time Position Orientation Groundspeed Altitude Reporting Facility
EDT Latitude Longitude Course Direction KTS MPH feet Rate Location/Type
10:27PM 37.6333 -122.3667 360° North 162 186 1,000  Level Northern Cal TRACON
10:28PM 37.6833 -122.3667 360° North 220 253 3,300 2,220 Climbing Northern Cal TRACON
10:29PM 37.6667 -122.4500 256° West 284 327 5,500 2,400 Climbing Northern Cal TRACON
10:30PM 37.6000 -122.4667 191° South 304 350 8,200 2,700 Climbing Northern Cal TRACON
10:31PM 37.5167 -122.4833 189° South 315 362 11,000 2,160 Climbing Northern Cal TRACON
10:32PM 37.4333 -122.4667 171° South 345 397 12,400 1,260 Climbing Northern Cal TRACON
10:33PM 37.3375 -122.3622 139° Southeast 380 437 13,800 1,020 Climbing Oakland Center
10:34PM 37.2511 -122.2619 137° Southeast 419 482 14,900 1,140 Climbing Oakland Center
10:35PM 37.1603 -122.1589 138° Southeast 439 505 16,200 1,200 Climbing Oakland Center
10:36PM 37.0678 -122.0525 137° Southeast 451 519 17,400 1,140 Climbing Oakland Center
10:37PM 36.9744 -121.9436 137° Southeast 458 527 18,600 1,260 Climbing Oakland Center
10:38PM 36.8606 -121.8139 138° Southeast 462 532 20,000 1,140 Climbing Oakland Center
10:39PM 36.7664 -121.7125 139° Southeast 471 542 21,000 960 Climbing Oakland Center
10:40PM 36.6711 -121.6000 137° Southeast 472 543 22,000 840 Climbing Oakland Center
10:41PM 36.5706 -121.4900 139° Southeast 480 552 22,800 780 Climbing Oakland Center
10:42PM 36.4725 -121.3769 137° Southeast 481 554 23,600 780 Climbing Oakland Center
10:43PM 36.3700 -121.2650 139° Southeast 489 563 24,400 780 Climbing Oakland Center
10:44PM 36.2703 -121.1514 137° Southeast 488 562 25,200 720 Climbing Oakland Center
10:45PM 36.1483 -121.0153 138° Southeast 491 565 25,900 600 Climbing Oakland Center
10:47PM 36.0464 -120.9025 138° Southeast 493 567 26,500 660 Climbing Oakland Center
10:48PM 35.9442 -120.7892 138° Southeast 494 568 27,300 780 Climbing Oakland Center
10:49PM 35.8414 -120.6753 138° Southeast 496 571 28,100 780 Climbing Oakland Center
10:50PM 35.7419 -120.5664 138° Southeast 485 558 29,000 840 Climbing Oakland Center
10:51PM 35.6433 -120.4578 138° Southeast 478 550 29,900 900 Climbing Oakland Center
10:52PM 35.5450 -120.3508 138° Southeast 470 541 30,900 780 Climbing Oakland Center
10:53PM 35.4436 -120.2431 139° Southeast 467 537 31,500 540 Climbing Oakland Center
10:54PM 35.3433 -120.1325 138° Southeast 470 541 32,000 480 Climbing Oakland Center
10:55PM 35.2439 -120.0267 139° Southeast 471 542 32,500 -120 Climbing Oakland Center
10:56PM 35.1417 -119.9181 139° Southeast 484 557 31,800 -1,800 Descending Oakland Center
10:57PM 35.0406 -119.7944 135° Southeast 508 585 28,900 -2,940 Descending Oakland Center
10:58PM 34.9467 -119.6667 132° Southeast 506 582 25,900 -2,880 Descending Oakland Center
10:59PM 34.8567 -119.5475 133° Southeast 493 567 23,100 -3,180 Descending Oakland Center
11:00PM 34.7528 -119.4069 132° Southeast 477 549 19,400 -3,360 Descending Oakland Center
11:01PM 34.6667 -119.2931 133° Southeast 466 536 16,300 -3,120 Descending Oakland Center
11:02PM 34.5514 -119.1425 133° Southeast 443 510 11,900 -2,220 Descending Los Angeles Center
11:03PM 34.4811 -119.0467 132° Southeast 368 423 11,000 -840 Descending Los Angeles Center
11:04PM 34.4206 -118.9683 133° Southeast 318 366 10,200 -1,080 Descending Los Angeles Center
11:05PM 34.3650 -118.8908 131° Southeast 307 353 8,800 -1,200 Descending Los Angeles Center
11:06PM 34.3069 -118.8203 135° Southeast 298 343 7,800 -1,080 Descending Los Angeles Center
11:07PM 34.2494 -118.7525 136° Southeast 288 331 6,600 -1,320 Descending Los Angeles Center
11:08PM 34.1861 -118.6678 132° Southeast 285 328 5,100 -1,020 Descending Los Angeles Center
11:09PM 34.1483 -118.6050 126° Southeast 254 292 4,600 -660 Descending Los Angeles Center
11:10PM 34.1456 -118.5333 93° East 226 260 3,800 -780 Descending Los Angeles Center
11:11PM 34.1369 -118.4692 99° East 202 232 3,100 -600 Descending Los Angeles Center
11:13PM 34.1303 -118.4111 98° East 184 212 2,600 -540 Descending Los Angeles Center
11:14PM 34.1397 -118.3600 77° East 169 194 2,100 -720 Descending Los Angeles Center
11:15PM 34.1736 -118.3506 13° North 153 176 1,200 -900 Descending Los Angeles Center